createdAt,value
2024-04-02T00:03:56.593Z,9.55
2024-04-02T00:09:21.873Z,9.54
2024-04-02T00:14:47.097Z,9.53
2024-04-02T00:20:12.350Z,9.53
2024-04-02T00:25:37.896Z,9.52
2024-04-02T00:31:03.225Z,9.50
2024-04-02T00:36:29.485Z,9.48
2024-04-02T00:41:57.293Z,9.50
2024-04-02T00:47:15.608Z,9.53
2024-04-02T00:52:40.888Z,9.55
2024-04-02T00:58:06.860Z,9.60
2024-04-02T01:03:32.452Z,9.65
2024-04-02T01:08:56.328Z,9.69
2024-04-02T01:14:22.694Z,9.73
2024-04-02T01:19:40.604Z,9.75
2024-04-02T01:25:16.497Z,9.75
2024-04-02T01:30:41.746Z,9.72
2024-04-02T01:36:06.987Z,9.70
2024-04-02T01:41:32.560Z,9.67
2024-04-02T01:46:57.845Z,9.67
2024-04-02T01:52:23.121Z,9.67
2024-04-02T01:57:48.662Z,9.65
2024-04-02T02:03:13.710Z,9.60
2024-04-02T02:08:39.128Z,9.54
2024-04-02T02:14:04.391Z,9.50
2024-04-02T02:19:29.633Z,9.43
2024-04-02T02:24:54.940Z,9.36
2024-04-02T02:30:20.284Z,9.28
2024-04-02T02:35:44.208Z,9.20
2024-04-02T02:41:09.430Z,9.12
2024-04-02T02:46:34.731Z,9.00
2024-04-02T02:51:59.979Z,8.92
2024-04-02T02:57:25.721Z,8.84
2024-04-02T03:02:50.980Z,8.78
2024-04-02T03:08:16.283Z,8.71
2024-04-02T03:13:41.588Z,8.63
2024-04-02T03:19:06.824Z,8.59
2024-04-02T03:24:32.099Z,8.57
2024-04-02T03:29:57.356Z,8.56
2024-04-02T03:35:22.616Z,8.60
2024-04-02T03:40:46.481Z,8.66
2024-04-02T03:46:11.821Z,8.71
2024-04-02T03:51:37.755Z,8.76
2024-04-02T03:57:03.988Z,8.79
2024-04-02T04:02:29.330Z,8.82
2024-04-02T04:07:54.611Z,8.82
2024-04-02T04:13:19.850Z,8.81
2024-04-02T04:18:46.523Z,8.75
2024-04-02T04:24:11.861Z,8.72
2024-04-02T04:29:37.200Z,8.66
2024-04-02T04:35:02.444Z,8.59
2024-04-02T04:40:30.288Z,8.53
2024-04-02T04:45:55.685Z,8.47
2024-04-02T04:51:17.946Z,8.47
2024-04-02T04:56:43.225Z,8.53
2024-04-02T05:02:08.487Z,8.60
2024-04-02T05:07:45.045Z,8.65
2024-04-02T05:13:10.356Z,8.68
2024-04-02T05:18:36.664Z,8.68
2024-04-02T05:24:02.069Z,8.67
2024-04-02T05:29:27.336Z,8.69
2024-04-02T05:34:52.561Z,8.74
2024-04-02T05:40:17.895Z,8.80
2024-04-02T05:45:43.200Z,8.88
2024-04-02T05:51:15.890Z,9.00
2024-04-02T05:56:41.600Z,9.11
2024-04-02T06:02:06.923Z,9.30
2024-04-02T06:07:32.215Z,9.66
2024-04-02T06:12:57.611Z,10.04
2024-04-02T06:18:16.357Z,10.46
2024-04-02T06:23:41.623Z,10.81
2024-04-02T06:29:07.092Z,11.19
2024-04-02T06:34:32.523Z,11.13
2024-04-02T06:39:59.040Z,11.27
2024-04-02T06:45:24.961Z,11.40
2024-04-02T06:50:50.232Z,11.47
2024-04-02T06:56:15.774Z,11.63
2024-04-02T07:01:41.101Z,11.79
2024-04-02T07:07:06.377Z,11.77
2024-04-02T07:12:31.911Z,11.83
2024-04-02T07:17:57.208Z,11.84
2024-04-02T07:23:22.581Z,11.92
2024-04-02T07:28:48.406Z,12.01
2024-04-02T07:34:13.854Z,12.08
2024-04-02T07:39:39.117Z,12.35
2024-04-02T07:45:05.506Z,12.42
2024-04-02T07:50:31.133Z,12.41
2024-04-02T07:55:58.241Z,12.26
2024-04-02T08:01:23.883Z,12.20
2024-04-02T08:06:49.104Z,12.12
2024-04-02T08:12:14.481Z,12.07
2024-04-02T08:17:40.030Z,11.99
2024-04-02T08:22:59.032Z,11.85
2024-04-02T08:28:24.621Z,11.96
2024-04-02T08:33:50.127Z,12.51
2024-04-02T08:39:15.401Z,12.62
2024-04-02T08:44:40.804Z,12.78
2024-04-02T08:50:07.717Z,12.72
2024-04-02T08:55:25.329Z,12.92
2024-04-02T09:00:51.687Z,12.93
2024-04-02T09:06:18.190Z,12.76
2024-04-02T09:11:43.836Z,12.61
2024-04-02T09:17:09.186Z,12.56
2024-04-02T09:22:34.406Z,12.53
2024-04-02T09:27:59.750Z,12.64
2024-04-02T09:33:25.507Z,12.59
2024-04-02T09:38:51.573Z,12.57
2024-04-02T09:44:18.467Z,12.65
2024-04-02T09:49:45.021Z,12.62
2024-04-02T09:55:12.397Z,12.54
2024-04-02T10:00:38.295Z,12.51
2024-04-02T10:06:05.961Z,12.48
2024-04-02T10:11:31.544Z,12.57
2024-04-02T10:17:03.089Z,13.16
2024-04-02T10:22:28.357Z,13.36
2024-04-02T10:27:56.514Z,13.23
2024-04-02T10:33:21.816Z,13.10
2024-04-02T10:38:32.754Z,13.23
2024-04-02T10:43:47.883Z,13.37
2024-04-02T10:49:16.444Z,13.16
2024-04-02T10:54:41.887Z,13.16
2024-04-02T10:59:58.135Z,13.12
2024-04-02T11:05:23.779Z,13.09
2024-04-02T11:10:49.085Z,13.28
2024-04-02T11:16:14.670Z,13.66
2024-04-02T11:21:41.111Z,13.57
2024-04-02T11:27:06.123Z,13.39
2024-04-02T11:32:31.522Z,13.17
2024-04-02T11:37:56.846Z,13.01
2024-04-02T11:43:12.009Z,13.09
2024-04-02T11:48:37.680Z,13.10
2024-04-02T11:54:02.974Z,12.99
2024-04-02T11:59:26.756Z,13.39
2024-04-02T12:04:42.026Z,13.87
2024-04-02T12:09:50.799Z,13.85
2024-04-02T12:15:15.555Z,13.70
2024-04-02T12:20:41.158Z,13.68
2024-04-02T12:26:06.597Z,13.59
2024-04-02T12:31:32.160Z,13.27
2024-04-02T12:36:57.588Z,12.93
2024-04-02T12:42:23.112Z,13.37
2024-04-02T12:47:48.441Z,13.55
2024-04-02T12:53:03.540Z,13.60
2024-04-02T12:58:25.034Z,13.61
2024-04-02T13:03:54.698Z,13.76
2024-04-02T13:09:19.971Z,13.89
2024-04-02T13:14:45.290Z,14.40
2024-04-02T13:19:59.014Z,14.83
2024-04-02T13:25:24.754Z,14.61
2024-04-02T13:30:50.712Z,14.25
2024-04-02T13:35:55.963Z,14.10
2024-04-02T13:41:22.764Z,14.18
2024-04-02T13:46:41.599Z,14.20
2024-04-02T13:51:56.797Z,13.98
2024-04-02T13:57:22.248Z,13.66
2024-04-02T14:02:47.617Z,13.22
2024-04-02T14:08:12.883Z,13.42
2024-04-02T14:13:38.555Z,13.52
2024-04-02T14:19:05.482Z,13.51
2024-04-02T14:24:30.907Z,13.69
2024-04-02T14:29:47.146Z,13.72
2024-04-02T14:35:12.486Z,13.86
2024-04-02T14:40:37.946Z,13.77
2024-04-02T14:45:55.798Z,13.52
2024-04-02T14:51:22.910Z,13.35
2024-04-02T14:56:48.176Z,13.16
2024-04-02T15:02:13.464Z,12.40
2024-04-02T15:07:38.860Z,11.48
2024-04-02T15:12:54.045Z,11.02
2024-04-02T15:18:09.676Z,10.94
2024-04-02T15:23:24.794Z,11.07
2024-04-02T15:28:42.597Z,11.20
2024-04-02T15:34:07.847Z,11.31
2024-04-02T15:39:33.264Z,11.32
2024-04-02T15:44:58.659Z,11.35
2024-04-02T15:50:24.354Z,11.32
2024-04-02T15:55:49.762Z,11.31
2024-04-02T16:01:20.629Z,11.30
2024-04-02T16:06:45.862Z,11.30
2024-04-02T16:12:11.156Z,11.30
2024-04-02T16:17:36.528Z,11.37
2024-04-02T16:23:02.132Z,11.43
2024-04-02T16:28:28.372Z,11.47
2024-04-02T16:33:54.251Z,11.66
2024-04-02T16:39:19.518Z,11.87
2024-04-02T16:44:44.867Z,11.87
2024-04-02T16:50:10.165Z,11.71
2024-04-02T16:55:35.545Z,11.55
2024-04-02T17:01:00.842Z,11.45
2024-04-02T17:06:27.965Z,11.40
2024-04-02T17:11:53.251Z,11.37
2024-04-02T17:17:12.249Z,11.37
2024-04-02T17:22:37.729Z,11.42
2024-04-02T17:28:02.947Z,11.44
2024-04-02T17:33:28.315Z,11.44
2024-04-02T17:38:54.051Z,11.45
2024-04-02T17:44:18.562Z,11.43
2024-04-02T17:49:44.348Z,11.44
2024-04-02T17:55:12.287Z,11.42
2024-04-02T18:00:32.351Z,11.38
2024-04-02T18:05:46.696Z,11.35
2024-04-02T18:11:12.338Z,11.30
2024-04-02T18:16:37.756Z,11.26
2024-04-02T18:21:56.039Z,11.23
2024-04-02T18:27:22.324Z,11.16
2024-04-02T18:32:40.564Z,11.06
2024-04-02T18:38:05.917Z,10.98
2024-04-02T18:43:31.711Z,10.89
2024-04-02T18:48:57.843Z,10.79
2024-04-02T18:54:23.382Z,10.72
2024-04-02T18:59:40.317Z,10.72
2024-04-02T19:05:06.251Z,10.71
2024-04-02T19:10:32.122Z,10.71
2024-04-02T19:15:58.019Z,10.70
2024-04-02T19:21:23.791Z,10.70
2024-04-02T19:26:47.621Z,10.66
2024-04-02T19:31:56.493Z,10.62
2024-04-02T19:37:22.225Z,10.57
2024-04-02T19:42:48.160Z,10.56
2024-04-02T19:48:13.435Z,10.58
2024-04-02T19:53:38.931Z,10.62
2024-04-02T19:59:05.887Z,10.63
2024-04-02T20:04:31.906Z,10.66
2024-04-02T20:09:57.937Z,10.63
2024-04-02T20:15:23.253Z,10.60
2024-04-02T20:20:48.476Z,10.56
2024-04-02T20:26:22.401Z,10.52
2024-04-02T20:31:40.097Z,10.41
2024-04-02T20:37:06.734Z,10.33
2024-04-02T20:42:32.006Z,10.24
2024-04-02T20:48:05.852Z,10.20
2024-04-02T20:53:33.935Z,10.17
2024-04-02T20:58:51.298Z,10.13
2024-04-02T21:04:16.599Z,10.10
2024-04-02T21:09:41.901Z,10.08
2024-04-02T21:15:07.351Z,10.09
2024-04-02T21:20:31.421Z,10.08
2024-04-02T21:25:58.734Z,10.08
2024-04-02T21:31:24.709Z,10.07
2024-04-02T21:36:50.018Z,10.06
2024-04-02T21:42:15.353Z,10.03
2024-04-02T21:47:40.648Z,10.02
2024-04-02T21:53:05.930Z,10.02
2024-04-02T21:58:31.227Z,10.02
2024-04-02T22:03:56.975Z,10.01
2024-04-02T22:09:22.214Z,10.01
2024-04-02T22:14:48.311Z,10.00
2024-04-02T22:20:05.930Z,9.97
2024-04-02T22:25:31.296Z,9.92
2024-04-02T22:30:56.658Z,9.88
2024-04-02T22:36:21.932Z,9.84
2024-04-02T22:41:47.172Z,9.83
2024-04-02T22:47:12.469Z,9.83
2024-04-02T22:52:37.727Z,9.82
2024-04-02T22:57:55.342Z,9.77
2024-04-02T23:03:20.139Z,9.70
2024-04-02T23:08:45.481Z,9.61
2024-04-02T23:14:10.739Z,9.53
2024-04-02T23:19:36.134Z,9.49
2024-04-02T23:25:01.385Z,9.49
2024-04-02T23:30:28.299Z,9.47
2024-04-02T23:35:53.919Z,9.41
2024-04-02T23:41:19.179Z,9.35
2024-04-02T23:46:44.461Z,9.32
2024-04-02T23:52:09.681Z,9.31
2024-04-02T23:57:34.902Z,9.30
